createdAt,value
2022-10-16T00:01:33.138Z,16.08
2022-10-16T00:04:01.496Z,16.20
2022-10-16T00:06:29.817Z,16.90
2022-10-16T00:08:57.408Z,16.50
2022-10-16T00:11:30.251Z,16.27
2022-10-16T00:14:00.376Z,13.73
2022-10-16T00:16:29.514Z,16.40
2022-10-16T00:18:57.128Z,18.67
2022-10-16T00:21:27.896Z,14.88
2022-10-16T00:24:00.480Z,10.32
2022-10-16T00:26:30.468Z,14.05
2022-10-16T00:28:57.688Z,13.95
2022-10-16T00:31:26.063Z,15.05
2022-10-16T00:33:53.472Z,14.82
2022-10-16T00:36:23.781Z,15.57
2022-10-16T00:38:56.635Z,12.63
2022-10-16T00:41:25.844Z,14.70
2022-10-16T00:43:58.426Z,16.17
2022-10-16T00:46:43.046Z,13.45
2022-10-16T00:49:14.202Z,13.93
2022-10-16T00:51:54.841Z,12.82
2022-10-16T00:54:30.460Z,11.75
2022-10-16T00:57:04.726Z,11.07
2022-10-16T00:59:37.731Z,10.10
2022-10-16T01:02:08.131Z,7.88
2022-10-16T01:04:55.608Z,8.35
2022-10-16T01:07:41.049Z,11.38
2022-10-16T01:13:23.082Z,8.80
2022-10-16T01:16:07.802Z,9.40
2022-10-16T01:18:43.963Z,8.45
2022-10-16T01:21:29.318Z,12.63
2022-10-16T01:24:24.037Z,8.77
2022-10-16T01:27:14.124Z,7.57
2022-10-16T01:30:10.953Z,8.85
2022-10-16T01:32:42.353Z,9.57
2022-10-16T01:35:13.467Z,8.85
2022-10-16T01:37:49.585Z,8.05
2022-10-16T01:40:19.703Z,3.67
2022-10-16T01:42:54.547Z,7.68
2022-10-16T01:45:22.565Z,7.43
2022-10-16T01:47:50.987Z,7.68
2022-10-16T01:50:21.834Z,6.70
2022-10-16T01:52:54.357Z,6.88
2022-10-16T01:55:29.333Z,8.75
2022-10-16T02:00:24.486Z,8.73
2022-10-16T02:02:55.115Z,7.20
2022-10-16T02:05:32.429Z,9.90
2022-10-16T02:08:00.584Z,7.63
2022-10-16T02:10:32.848Z,7.30
2022-10-16T02:13:49.361Z,5.22
2022-10-16T02:16:16.962Z,8.02
2022-10-16T02:18:45.208Z,8.65
2022-10-16T02:21:24.273Z,5.85
2022-10-16T02:24:27.713Z,10.00
2022-10-16T02:27:11.743Z,7.72
2022-10-16T02:29:51.306Z,6.70
2022-10-16T02:32:23.216Z,10.18
2022-10-16T02:34:51.836Z,8.68
2022-10-16T02:37:20.241Z,8.45
2022-10-16T02:39:47.088Z,9.85
2022-10-16T02:42:15.286Z,8.73
2022-10-16T02:44:42.424Z,8.35
2022-10-16T02:47:09.328Z,10.05
2022-10-16T02:49:36.526Z,8.25
2022-10-16T02:52:04.169Z,8.63
2022-10-16T02:54:31.123Z,6.82
2022-10-16T02:56:58.011Z,6.22
2022-10-16T02:59:24.798Z,7.60
2022-10-16T03:01:51.729Z,16.55
2022-10-16T03:04:18.604Z,11.32
2022-10-16T03:06:45.389Z,10.80
2022-10-16T03:09:12.333Z,7.03
2022-10-16T03:11:39.176Z,10.23
2022-10-16T03:14:06.097Z,11.32
2022-10-16T03:16:33.205Z,9.02
2022-10-16T03:19:00.071Z,11.60
2022-10-16T03:21:26.851Z,10.70
2022-10-16T03:23:53.652Z,8.88
2022-10-16T03:26:20.451Z,13.77
2022-10-16T03:28:47.459Z,16.23
2022-10-16T03:31:14.235Z,16.33
2022-10-16T03:33:41.193Z,14.55
2022-10-16T03:36:07.967Z,8.80
2022-10-16T03:38:34.800Z,13.43
2022-10-16T03:41:01.744Z,12.48
2022-10-16T03:43:28.850Z,11.07
2022-10-16T03:45:55.703Z,15.18
2022-10-16T03:48:22.498Z,13.30
2022-10-16T03:50:49.532Z,15.95
2022-10-16T03:53:16.680Z,12.80
2022-10-16T03:55:44.649Z,12.65
2022-10-16T03:58:12.368Z,13.02
2022-10-16T04:00:43.929Z,10.52
2022-10-16T04:03:12.014Z,19.55
2022-10-16T04:05:38.984Z,12.00
2022-10-16T04:08:05.800Z,10.57
2022-10-16T04:10:33.086Z,8.70
2022-10-16T04:12:59.920Z,17.67
2022-10-16T04:15:27.347Z,12.15
2022-10-16T04:17:54.337Z,11.38
2022-10-16T04:20:21.368Z,15.25
2022-10-16T04:22:48.373Z,10.63
2022-10-16T04:25:15.303Z,12.82
2022-10-16T04:27:45.188Z,11.20
2022-10-16T04:30:13.417Z,8.23
2022-10-16T04:32:40.930Z,14.13
2022-10-16T04:35:08.608Z,12.73
2022-10-16T04:37:35.715Z,11.73
2022-10-16T04:40:02.520Z,17.52
2022-10-16T04:42:29.384Z,10.80
2022-10-16T04:44:56.232Z,14.43
2022-10-16T04:47:23.122Z,13.32
2022-10-16T04:49:49.929Z,10.15
2022-10-16T04:52:17.353Z,11.25
2022-10-16T04:54:46.256Z,13.70
2022-10-16T04:57:13.369Z,12.70
2022-10-16T04:59:40.155Z,11.88
2022-10-16T05:02:07.022Z,11.48
2022-10-16T05:04:33.835Z,11.13
2022-10-16T05:07:00.669Z,14.52
2022-10-16T05:09:27.755Z,8.27
2022-10-16T05:11:54.564Z,8.38
2022-10-16T05:14:21.344Z,9.07
2022-10-16T05:16:49.373Z,14.45
2022-10-16T05:19:26.808Z,12.07
2022-10-16T05:21:54.954Z,15.23
2022-10-16T05:24:21.762Z,10.52
2022-10-16T05:26:48.999Z,14.27
2022-10-16T05:29:15.761Z,6.43
2022-10-16T05:31:42.585Z,9.32
2022-10-16T05:34:09.466Z,8.25
2022-10-16T05:36:36.292Z,9.20
2022-10-16T05:39:03.939Z,11.02
2022-10-16T05:41:30.752Z,7.13
2022-10-16T05:43:57.500Z,8.90
2022-10-16T05:46:24.584Z,12.95
2022-10-16T05:48:54.409Z,7.35
2022-10-16T05:51:21.459Z,6.65
2022-10-16T05:53:48.692Z,8.70
2022-10-16T05:56:15.744Z,11.15
2022-10-16T05:58:43.260Z,10.38
2022-10-16T06:01:17.322Z,6.22
2022-10-16T06:03:44.710Z,7.10
2022-10-16T06:06:15.239Z,8.25
2022-10-16T06:08:44.622Z,13.02
2022-10-16T06:11:25.428Z,8.57
2022-10-16T06:14:02.921Z,9.27
2022-10-16T06:16:30.440Z,10.10
2022-10-16T06:18:57.660Z,13.57
2022-10-16T06:21:26.368Z,9.68
2022-10-16T06:23:54.074Z,13.00
2022-10-16T06:26:24.785Z,10.07
2022-10-16T06:28:51.681Z,13.02
2022-10-16T06:31:19.125Z,10.65
2022-10-16T06:33:48.075Z,14.25
2022-10-16T06:36:19.101Z,17.48
2022-10-16T06:38:45.981Z,11.95
2022-10-16T06:41:19.343Z,9.35
2022-10-16T06:43:47.161Z,13.05
2022-10-16T06:46:16.907Z,9.38
2022-10-16T06:48:44.345Z,8.23
2022-10-16T06:51:16.409Z,16.00
2022-10-16T06:54:06.128Z,12.52
2022-10-16T06:56:34.485Z,8.63
2022-10-16T06:59:01.679Z,12.73
2022-10-16T07:01:29.150Z,17.80
2022-10-16T07:03:56.042Z,9.98
2022-10-16T07:06:26.269Z,17.00
2022-10-16T07:08:53.673Z,14.05
2022-10-16T07:11:24.395Z,14.27
2022-10-16T07:13:55.099Z,12.10
2022-10-16T07:16:27.819Z,14.02
2022-10-16T07:19:00.769Z,13.30
2022-10-16T07:21:37.427Z,10.82
2022-10-16T07:24:07.693Z,9.38
2022-10-16T07:26:37.839Z,16.92
2022-10-16T07:29:05.042Z,8.27
2022-10-16T07:31:32.343Z,13.25
2022-10-16T07:34:01.284Z,14.50
2022-10-16T07:36:28.322Z,13.52
2022-10-16T07:38:58.644Z,18.25
2022-10-16T07:41:28.412Z,14.57
2022-10-16T07:43:57.576Z,16.33
2022-10-16T07:46:24.818Z,8.73
2022-10-16T07:48:52.008Z,9.95
2022-10-16T07:51:23.205Z,12.05
2022-10-16T07:53:50.810Z,11.07
2022-10-16T07:56:19.395Z,11.60
2022-10-16T07:58:46.945Z,11.05
2022-10-16T08:01:16.738Z,9.18
2022-10-16T08:03:51.520Z,10.63
2022-10-16T08:06:23.475Z,12.82
2022-10-16T08:08:53.797Z,9.90
2022-10-16T08:11:20.642Z,13.30
2022-10-16T08:13:47.521Z,12.60
2022-10-16T08:16:14.677Z,10.90
2022-10-16T08:18:42.065Z,11.40
2022-10-16T08:21:20.143Z,12.07
2022-10-16T08:23:51.530Z,14.32
2022-10-16T08:26:24.833Z,8.82
2022-10-16T08:28:52.987Z,12.77
2022-10-16T08:31:21.094Z,10.82
2022-10-16T08:33:48.914Z,9.25
2022-10-16T08:36:17.370Z,8.43
2022-10-16T08:38:44.269Z,9.00
2022-10-16T08:41:13.969Z,9.75
2022-10-16T08:44:01.596Z,10.90
2022-10-16T08:46:57.919Z,14.90
2022-10-16T08:49:25.852Z,8.88
2022-10-16T08:51:53.433Z,10.18
2022-10-16T08:54:46.272Z,11.50
2022-10-16T08:57:24.230Z,12.38
2022-10-16T08:59:52.743Z,12.35
2022-10-16T09:02:36.761Z,12.60
2022-10-16T09:05:12.711Z,9.30
2022-10-16T09:07:54.612Z,9.98
2022-10-16T09:10:40.802Z,13.57
2022-10-16T09:13:31.058Z,9.95
2022-10-16T09:16:31.530Z,8.75
2022-10-16T09:19:10.887Z,7.15
2022-10-16T09:21:42.810Z,13.27
2022-10-16T09:24:29.325Z,9.38
2022-10-16T09:26:56.528Z,15.88
2022-10-16T09:29:26.363Z,12.95
2022-10-16T09:31:56.472Z,11.88
2022-10-16T09:34:35.948Z,12.57
2022-10-16T09:37:10.151Z,8.27
2022-10-16T09:39:48.879Z,9.80
2022-10-16T09:42:37.693Z,7.80
2022-10-16T09:45:05.572Z,8.63
2022-10-16T09:47:33.281Z,12.98
2022-10-16T09:50:22.197Z,8.98
2022-10-16T09:52:49.125Z,13.48
2022-10-16T09:55:19.545Z,10.05
2022-10-16T09:57:56.226Z,7.82
2022-10-16T10:00:25.623Z,10.82
2022-10-16T10:05:41.568Z,7.57
2022-10-16T10:08:19.365Z,9.80
2022-10-16T10:10:49.915Z,9.60
2022-10-16T10:13:28.379Z,7.82
2022-10-16T10:15:55.331Z,10.52
2022-10-16T10:18:25.116Z,10.77
2022-10-16T10:21:01.705Z,10.70
2022-10-16T10:23:31.223Z,14.93
2022-10-16T10:26:14.037Z,10.50
2022-10-16T10:29:22.505Z,9.10
2022-10-16T10:32:11.544Z,8.75
2022-10-16T10:34:47.711Z,6.88
2022-10-16T10:37:39.059Z,9.38
2022-10-16T10:40:29.755Z,10.55
2022-10-16T10:43:05.880Z,12.18
2022-10-16T10:45:46.377Z,8.77
2022-10-16T10:48:50.567Z,10.07
2022-10-16T10:51:29.577Z,9.70
2022-10-16T10:54:24.579Z,6.53
2022-10-16T10:57:09.133Z,16.93
2022-10-16T10:59:57.331Z,11.25
2022-10-16T11:02:56.638Z,12.55
2022-10-16T11:05:42.399Z,6.82
2022-10-16T11:08:19.123Z,10.43
2022-10-16T11:10:54.847Z,6.55
2022-10-16T11:13:44.938Z,6.95
2022-10-16T11:16:24.931Z,7.55
2022-10-16T11:19:00.079Z,7.78
2022-10-16T11:21:31.776Z,6.05
2022-10-16T11:24:07.736Z,7.55
2022-10-16T11:26:41.183Z,9.77
2022-10-16T11:29:19.499Z,5.22
2022-10-16T11:31:54.935Z,6.18
2022-10-16T11:34:43.072Z,7.47
2022-10-16T11:37:19.762Z,5.57
2022-10-16T11:39:47.948Z,8.38
2022-10-16T11:42:30.722Z,8.07
2022-10-16T11:45:26.010Z,10.18
2022-10-16T11:48:03.849Z,7.75
2022-10-16T11:50:41.051Z,8.70
2022-10-16T11:53:49.129Z,8.93
2022-10-16T11:56:21.656Z,5.60
2022-10-16T11:59:13.972Z,6.90
2022-10-16T12:02:26.907Z,4.93
2022-10-16T12:05:17.972Z,7.13
2022-10-16T12:08:06.756Z,7.57
2022-10-16T12:13:43.448Z,9.45
2022-10-16T12:16:13.372Z,6.45
2022-10-16T12:18:43.688Z,6.55
2022-10-16T12:21:14.626Z,8.85
2022-10-16T12:23:53.485Z,8.38
2022-10-16T12:26:42.893Z,4.85
2022-10-16T12:29:40.002Z,8.52
2022-10-16T12:32:48.471Z,6.03
2022-10-16T12:35:30.149Z,10.93
2022-10-16T12:38:09.125Z,5.78
2022-10-16T12:40:39.146Z,8.30
2022-10-16T12:43:23.814Z,8.75
2022-10-16T12:46:10.841Z,5.82
2022-10-16T12:48:55.412Z,8.15
2022-10-16T12:51:37.899Z,6.60
2022-10-16T12:54:20.307Z,4.88
2022-10-16T12:57:02.273Z,4.22
2022-10-16T12:59:44.181Z,5.47
2022-10-16T13:02:36.017Z,7.20
2022-10-16T13:05:12.043Z,6.03
2022-10-16T13:07:57.011Z,4.70
2022-10-16T13:11:03.824Z,9.30
2022-10-16T13:13:56.578Z,6.43
2022-10-16T13:16:54.001Z,6.00
2022-10-16T13:19:45.202Z,6.07
2022-10-16T13:22:31.345Z,6.35
2022-10-16T13:25:19.325Z,8.45
2022-10-16T13:28:04.272Z,7.47
2022-10-16T13:30:42.000Z,7.28
2022-10-16T13:33:18.676Z,7.05
2022-10-16T13:35:55.460Z,4.65
2022-10-16T13:38:33.167Z,7.05
2022-10-16T13:41:12.925Z,7.15
2022-10-16T13:43:47.228Z,7.68
2022-10-16T13:46:19.807Z,4.87
2022-10-16T13:49:02.074Z,8.63
2022-10-16T13:51:30.369Z,5.75
2022-10-16T13:53:58.570Z,3.83
2022-10-16T13:56:34.139Z,6.15
2022-10-16T13:59:07.133Z,5.40
2022-10-16T14:01:44.854Z,6.10
2022-10-16T14:04:15.092Z,6.38
2022-10-16T14:06:46.097Z,4.70
2022-10-16T14:09:31.323Z,5.53
2022-10-16T14:12:03.794Z,8.20
2022-10-16T14:14:42.586Z,4.55
2022-10-16T14:17:27.697Z,5.38
2022-10-16T14:20:04.156Z,6.25
2022-10-16T14:22:43.700Z,5.57
2022-10-16T14:25:22.868Z,6.50
2022-10-16T14:28:16.134Z,5.35
2022-10-16T14:31:01.196Z,6.78
2022-10-16T14:33:31.046Z,5.55
2022-10-16T14:36:05.439Z,6.80
2022-10-16T14:38:33.811Z,5.78
2022-10-16T14:41:02.180Z,7.90
2022-10-16T14:43:39.123Z,8.20
2022-10-16T14:46:16.007Z,3.60
2022-10-16T14:48:45.347Z,6.88
2022-10-16T14:51:18.017Z,5.85
2022-10-16T14:53:44.825Z,7.57
2022-10-16T14:56:23.285Z,6.65
2022-10-16T14:58:52.337Z,9.85
2022-10-16T15:01:19.810Z,7.60
2022-10-16T15:03:47.077Z,6.18
2022-10-16T15:06:16.437Z,9.63
2022-10-16T15:08:44.344Z,10.32
2022-10-16T15:11:15.580Z,6.32
2022-10-16T15:13:42.813Z,8.48
2022-10-16T15:16:16.240Z,10.75
2022-10-16T15:18:43.612Z,8.50
2022-10-16T15:21:27.519Z,7.25
2022-10-16T15:23:54.710Z,7.03
2022-10-16T15:26:21.480Z,6.88
2022-10-16T15:28:48.327Z,10.30
2022-10-16T15:31:15.234Z,6.22
2022-10-16T15:33:42.386Z,6.43
2022-10-16T15:36:09.449Z,8.45
2022-10-16T15:38:36.518Z,10.63
2022-10-16T15:41:03.629Z,10.35
2022-10-16T15:43:30.470Z,5.38
2022-10-16T15:46:12.436Z,6.35
2022-10-16T15:48:39.451Z,6.43
2022-10-16T15:51:08.371Z,5.40
2022-10-16T15:53:35.952Z,8.18
2022-10-16T15:56:07.685Z,5.90
2022-10-16T15:58:35.156Z,7.72
2022-10-16T16:01:03.054Z,6.15
2022-10-16T16:03:30.199Z,8.50
2022-10-16T16:05:58.096Z,8.02
2022-10-16T16:08:25.016Z,7.80
2022-10-16T16:11:12.652Z,7.32
2022-10-16T16:13:40.001Z,5.55
2022-10-16T16:16:12.300Z,8.25
2022-10-16T16:18:40.122Z,9.00
2022-10-16T16:21:07.501Z,9.57
2022-10-16T16:23:34.745Z,8.93
2022-10-16T16:26:25.064Z,8.88
2022-10-16T16:28:52.023Z,11.23
2022-10-16T16:31:19.073Z,9.25
2022-10-16T16:33:46.084Z,8.35
2022-10-16T16:36:15.897Z,12.73
2022-10-16T16:38:43.022Z,11.07
2022-10-16T16:41:26.443Z,9.85
2022-10-16T16:43:54.964Z,9.85
2022-10-16T16:46:22.773Z,11.38
2022-10-16T16:48:54.616Z,8.88
2022-10-16T16:51:21.535Z,9.50
2022-10-16T16:53:53.759Z,7.85
2022-10-16T16:56:23.436Z,9.15
2022-10-16T16:58:53.191Z,11.80
2022-10-16T17:01:21.631Z,11.85
2022-10-16T17:03:53.183Z,8.82
2022-10-16T17:06:27.541Z,8.50
2022-10-16T17:08:54.678Z,9.57
2022-10-16T17:11:27.503Z,9.68
2022-10-16T17:13:57.129Z,16.05
2022-10-16T17:16:34.243Z,15.57
2022-10-16T17:19:04.039Z,16.45
2022-10-16T17:21:33.065Z,15.48
2022-10-16T17:24:01.938Z,13.57
2022-10-16T17:26:29.989Z,13.25
2022-10-16T17:29:00.590Z,11.25
2022-10-16T17:31:34.944Z,10.90
2022-10-16T17:34:04.991Z,16.93
2022-10-16T17:36:36.076Z,19.90
2022-10-16T17:39:10.985Z,14.05
2022-10-16T17:41:38.543Z,12.43
2022-10-16T17:44:07.461Z,14.07
2022-10-16T17:46:38.386Z,16.77
2022-10-16T17:49:09.905Z,16.00
2022-10-16T17:51:36.843Z,12.93
2022-10-16T17:54:03.816Z,15.63
2022-10-16T17:56:31.605Z,11.68
2022-10-16T17:59:01.981Z,10.50
2022-10-16T18:01:40.596Z,18.48
2022-10-16T18:04:15.052Z,11.25
2022-10-16T18:06:44.075Z,14.65
2022-10-16T18:09:15.217Z,17.92
2022-10-16T18:11:42.092Z,17.75
2022-10-16T18:14:09.130Z,18.15
2022-10-16T18:16:37.029Z,25.70
2022-10-16T18:19:03.975Z,12.70
2022-10-16T18:21:30.951Z,18.25
2022-10-16T18:24:01.489Z,29.52
2022-10-16T18:26:28.856Z,17.33
2022-10-16T18:28:57.602Z,11.95
2022-10-16T18:31:26.760Z,13.52
2022-10-16T18:33:56.007Z,14.32
2022-10-16T18:36:32.821Z,19.08
2022-10-16T18:39:02.021Z,19.63
2022-10-16T18:41:29.106Z,19.58
2022-10-16T18:43:59.282Z,15.60
2022-10-16T18:46:26.693Z,18.63
2022-10-16T18:48:54.800Z,21.92
2022-10-16T18:51:26.201Z,18.45
2022-10-16T18:54:00.272Z,18.45
2022-10-16T18:56:30.481Z,24.42
2022-10-16T18:59:00.872Z,20.58
2022-10-16T19:01:30.383Z,22.27
2022-10-16T19:04:13.873Z,20.20
2022-10-16T19:06:47.105Z,23.95
2022-10-16T19:09:16.859Z,20.40
2022-10-16T19:11:44.708Z,21.08
2022-10-16T19:14:14.094Z,20.55
2022-10-16T19:16:43.190Z,20.38
2022-10-16T19:19:18.470Z,18.98
2022-10-16T19:21:47.945Z,24.55
2022-10-16T19:24:16.718Z,20.25
2022-10-16T19:26:44.078Z,26.25
2022-10-16T19:29:11.977Z,26.40
2022-10-16T19:31:39.907Z,21.52
2022-10-16T19:34:07.675Z,19.90
2022-10-16T19:36:37.111Z,19.80
2022-10-16T19:39:08.628Z,19.17
2022-10-16T19:41:37.215Z,26.13
2022-10-16T19:44:08.306Z,26.60
2022-10-16T19:46:36.136Z,17.05
2022-10-16T19:49:06.463Z,15.32
2022-10-16T19:51:34.294Z,23.33
2022-10-16T19:54:05.201Z,21.00
2022-10-16T19:56:33.941Z,23.67
2022-10-16T19:59:01.404Z,26.20
2022-10-16T20:01:31.610Z,21.23
2022-10-16T20:03:59.030Z,24.25
2022-10-16T20:06:26.676Z,23.38
2022-10-16T20:08:55.281Z,19.27
2022-10-16T20:11:26.441Z,27.92
2022-10-16T20:13:53.692Z,19.30
2022-10-16T20:16:21.153Z,21.83
2022-10-16T20:18:51.249Z,24.17
2022-10-16T20:21:29.853Z,27.52
2022-10-16T20:23:57.814Z,22.00
2022-10-16T20:26:26.197Z,18.23
2022-10-16T20:28:54.521Z,19.20
2022-10-16T20:31:25.686Z,24.75
2022-10-16T20:33:55.272Z,24.40
2022-10-16T20:36:24.777Z,20.95
2022-10-16T20:38:52.029Z,23.40
2022-10-16T20:41:19.542Z,18.13
2022-10-16T20:43:48.573Z,20.95
2022-10-16T20:46:20.484Z,17.25
2022-10-16T20:48:47.850Z,19.45
2022-10-16T20:51:24.710Z,12.73
2022-10-16T20:54:04.256Z,20.70
2022-10-16T20:56:34.763Z,17.38
2022-10-16T20:59:01.612Z,13.93
2022-10-16T21:01:31.205Z,12.93
2022-10-16T21:04:02.095Z,20.90
2022-10-16T21:06:32.536Z,15.90
2022-10-16T21:09:04.232Z,12.40
2022-10-16T21:11:34.887Z,12.40
2022-10-16T21:14:05.864Z,11.38
2022-10-16T21:16:34.525Z,12.70
2022-10-16T21:19:01.492Z,9.52
2022-10-16T21:21:32.360Z,9.73
2022-10-16T21:24:00.667Z,9.85
2022-10-16T21:26:29.143Z,10.73
2022-10-16T21:29:02.117Z,10.82
2022-10-16T21:31:30.182Z,9.10
2022-10-16T21:33:57.769Z,10.77
2022-10-16T21:36:28.744Z,12.02
2022-10-16T21:38:56.773Z,12.50
2022-10-16T21:41:27.365Z,10.75
2022-10-16T21:43:56.467Z,10.25
2022-10-16T21:46:28.208Z,10.05
2022-10-16T21:49:00.849Z,7.00
2022-10-16T21:51:34.047Z,9.40
2022-10-16T21:54:02.294Z,7.85
2022-10-16T21:56:29.408Z,8.55
2022-10-16T21:58:56.464Z,6.78
2022-10-16T22:01:25.937Z,9.25
2022-10-16T22:03:53.095Z,6.90
2022-10-16T22:06:24.391Z,9.77
2022-10-16T22:08:53.312Z,6.15
2022-10-16T22:11:27.962Z,6.28
2022-10-16T22:13:57.051Z,6.72
2022-10-16T22:16:27.160Z,6.88
2022-10-16T22:18:56.353Z,4.95
2022-10-16T22:21:24.318Z,5.07
2022-10-16T22:23:51.923Z,5.78
2022-10-16T22:26:18.785Z,5.50
2022-10-16T22:28:45.776Z,5.18
2022-10-16T22:31:14.633Z,3.90
2022-10-16T22:33:42.231Z,7.00
2022-10-16T22:36:13.462Z,5.88
2022-10-16T22:38:40.664Z,4.38
2022-10-16T22:41:13.019Z,6.40
2022-10-16T22:43:44.145Z,6.07
2022-10-16T22:46:18.454Z,7.10
2022-10-16T22:48:45.598Z,5.63
2022-10-16T22:51:17.398Z,4.85
2022-10-16T22:53:46.735Z,4.43
2022-10-16T22:56:15.512Z,5.82
2022-10-16T22:58:43.469Z,5.38
2022-10-16T23:01:30.901Z,4.45
2022-10-16T23:03:57.971Z,6.28
2022-10-16T23:06:25.139Z,6.03
2022-10-16T23:08:59.073Z,4.22
2022-10-16T23:11:26.983Z,6.15
2022-10-16T23:13:53.950Z,7.70
2022-10-16T23:16:23.113Z,7.07
2022-10-16T23:18:50.832Z,6.07
2022-10-16T23:21:22.005Z,6.35
2022-10-16T23:23:51.886Z,4.53
2022-10-16T23:26:23.837Z,7.30
2022-10-16T23:28:50.984Z,4.93
2022-10-16T23:31:18.819Z,8.27
2022-10-16T23:33:45.701Z,8.52
2022-10-16T23:36:17.096Z,8.82
2022-10-16T23:38:44.926Z,10.10
2022-10-16T23:41:11.995Z,6.18
2022-10-16T23:43:40.560Z,3.85
2022-10-16T23:46:10.067Z,7.95
2022-10-16T23:48:40.270Z,6.15
2022-10-16T23:51:08.842Z,7.60
2022-10-16T23:53:35.970Z,11.60
2022-10-16T23:56:02.802Z,6.55
2022-10-16T23:58:29.609Z,8.00
